Redmond, Oregon
Current Conditions -  °F | °C
As of 4:56 AM on Friday 24 Oct 2014 (Local Time) from KRDM Reporting Station
Overcast Overcast  
Wind Chill: 44°   Ceiling: 2600
Heat Index: 46°   Visibility: 10mi
Dew Point: 42°   Wind: 5mph
Humidity: 86%   Direction: 90°E
Pressure: 30.03"   Gusts: NA
Location:  44.27°N, 121.17°W
Report Text: KRDM 241156Z 09004KT 10SM OVC026 08/06 A3003 RMK AO2 RAB04E14 SLP168 P0000 60000 70009 T00780056 10100 20078 51001
Loading
Personal Weather Stations






























Interactive Weather Map New forecast layout! Learn more

10-Day Weather Forecast

Advertisements
Track Severe Weather on mobile